Main page
METAR-TAF:

METAR-TAF

Airports :

Islay, Scotland

Islay Airport

latitude: 55-40-55N, longitude: 006-15-24W, elevation: 16 m

Current weather observation

The report was made 30 minutes ago, at 01:50 UTC
Wind 8 kt from the South, varying between Southeast and South/Southwest
Temperature 7°C
Humidity 100%
Pressure 1017 hPa
Visibility 10 km or more

METAR: EGPI 170150Z AUTO 18008KT 130V210 9999 BKN022/// 07/07 Q1017 RERA

Time: 02:20 (02:20 UTC)

Forecast

The report was made 10 hours and 5 minutes ago, at 16:15 UTC
Forecast valid from 16 at 16 UTC to 16 at 19 UTC
Wind 7 kt from the West/Northwest
Visibility 10 km or more
Scattered clouds at a height of 2400 ft
Temporary
from 16 at 16 UTC to 16 at 19 UTC
Visibility: 7000 m
rain showers

TAF: EGPI 161615Z 1616/1619 30007KT 9999 SCT024 TEMPO 1616/1619 7000 SHRA

Weather observations and forecasts of more than 4000 airports (METAR and TAF reports).

The available stations are represented by yellow and red dots on the map.

Hover mouse over dot to see the name of the station.

Then click to see weather observations and forecasts.

To change the map : click on the green buttons with a black cross to zoom in, on the green button with a dash to zoom out, or on the green arrows for adjacent maps.


METAR-TAF: